Time;durP1;ratioP1;P1;durP2;ratioP2;P2;SDS_P1;SDS_P2;PMS_P1;PMS_P2;Temp;Humidity;BMP_temperature;BMP_pressure;BME280_temperature;BME280_humidity;BME280_pressure;Samples;Min_cycle;Max_cycle;Signal;HPM_P1;HPM_P2
2022/01/05 00:02:07;;;;;;;11.77;3.30;;;;;;;;;;5040098;28;20093;-73
2022/01/05 00:04:32;;;;;;;13.75;2.92;;;;;;;;;;5040417;28;20033;-73
2022/01/05 00:06:57;;;;;;;14.77;3.05;;;;;;;;;;5035934;28;20152;-73
2022/01/05 00:09:23;;;;;;;8.65;2.58;;;;;;;;;;5038155;28;20075;-72
2022/01/05 00:11:48;;;;;;;13.00;2.70;;;;;;;;;;5039795;28;20056;-73
2022/01/05 00:14:15;;;;;;;6.13;2.03;;;;;;;;;;5046079;28;20025;-73
2022/01/05 00:16:40;;;;;;;17.83;2.80;;;;;;;;;;5032387;28;20143;-72
2022/01/05 00:19:06;;;;;;;8.13;2.25;;;;;;;;;;5045012;28;20986;-73
2022/01/05 00:21:31;;;;;;;7.30;2.45;;;;;;;;;;5043388;28;20041;-72
2022/01/05 00:23:59;;;;;;;18.77;3.53;;;;;;;;;;5036596;28;20454;-73
2022/01/05 00:26:25;;;;;;;9.68;2.42;;;;;;;;;;5038756;28;20041;-73
2022/01/05 00:28:50;;;;;;;13.48;2.53;;;;;;;;;;5043775;28;20375;-73
2022/01/05 00:31:16;;;;;;;12.10;2.47;;;;;;;;;;5038057;28;20211;-73
2022/01/05 00:33:42;;;;;;;9.05;2.13;;;;;;;;;;5035117;28;20489;-73
2022/01/05 00:36:07;;;;;;;10.68;2.40;;;;;;;;;;5037245;28;20068;-72
2022/01/05 00:38:34;;;;;;;8.82;1.95;;;;;;;;;;5037236;28;20498;-73
2022/01/05 00:41:00;;;;;;;14.07;2.50;;;;;;;;;;5034033;28;20036;-73
2022/01/05 00:43:25;;;;;;;16.60;2.70;;;;;;;;;;5041780;28;20086;-73
2022/01/05 00:45:51;;;;;;;8.23;2.17;;;;;;;;;;5041045;28;20078;-72
2022/01/05 00:48:16;;;;;;;2.72;1.45;;;;;;;;;;5038875;28;20052;-72
2022/01/05 00:50:41;;;;;;;6.03;2.42;;;;;;;;;;5047892;28;20060;-73
2022/01/05 00:53:07;;;;;;;10.25;2.92;;;;;;;;;;5058005;28;20032;-72
2022/01/05 00:55:32;;;;;;;14.07;2.70;;;;;;;;;;5059717;28;20097;-72
2022/01/05 00:57:57;;;;;;;13.27;3.25;;;;;;;;;;5049261;28;20045;-73
2022/01/05 01:00:23;;;;;;;10.77;3.50;;;;;;;;;;5055875;28;20072;-72
2022/01/05 01:02:48;;;;;;;12.95;2.70;;;;;;;;;;5049022;28;20636;-72
2022/01/05 01:05:15;;;;;;;10.65;2.88;;;;;;;;;;5045172;28;20060;-72
2022/01/05 01:07:40;;;;;;;15.80;3.40;;;;;;;;;;5059097;28;20028;-72
2022/01/05 01:10:06;;;;;;;9.10;3.10;;;;;;;;;;5063755;28;20086;-72
2022/01/05 01:12:34;;;;;;;7.25;3.00;;;;;;;;;;5046958;28;20037;-73
2022/01/05 01:15:00;;;;;;;10.38;2.90;;;;;;;;;;5036644;28;20202;-72
2022/01/05 01:17:25;;;;;;;9.55;2.63;;;;;;;;;;5036706;28;20553;-72
2022/01/05 01:19:51;;;;;;;10.43;3.28;;;;;;;;;;5042155;28;20234;-72
2022/01/05 01:22:16;;;;;;;10.80;2.60;;;;;;;;;;5028996;28;20044;-73
2022/01/05 01:24:41;;;;;;;10.85;3.63;;;;;;;;;;5055342;28;20052;-72
2022/01/05 01:27:07;;;;;;;11.32;2.40;;;;;;;;;;5045095;28;20044;-72
2022/01/05 01:29:32;;;;;;;10.38;3.03;;;;;;;;;;5057100;28;20037;-72
2022/01/05 01:31:57;;;;;;;15.43;3.38;;;;;;;;;;5064497;28;20401;-72
2022/01/05 01:34:23;;;;;;;12.85;3.00;;;;;;;;;;5013846;28;20022;-72
2022/01/05 01:36:49;;;;;;;18.23;3.33;;;;;;;;;;5033098;28;20036;-72
2022/01/05 01:39:14;;;;;;;21.08;4.22;;;;;;;;;;5061596;28;20729;-72
2022/01/05 01:41:39;;;;;;;15.85;2.88;;;;;;;;;;5052384;28;20565;-73
2022/01/05 01:44:05;;;;;;;24.15;4.18;;;;;;;;;;5055705;28;20187;-72
2022/01/05 01:46:31;;;;;;;16.88;3.33;;;;;;;;;;5038859;28;20079;-72
2022/01/05 01:48:56;;;;;;;18.02;3.72;;;;;;;;;;5060224;28;20131;-72
2022/01/05 01:51:22;;;;;;;20.50;3.80;;;;;;;;;;5050024;28;20049;-72
2022/01/05 01:53:48;;;;;;;14.25;3.45;;;;;;;;;;5034646;28;20032;-73
2022/01/05 01:56:14;;;;;;;19.90;3.55;;;;;;;;;;5037336;28;20676;-72
2022/01/05 01:58:39;;;;;;;12.38;2.83;;;;;;;;;;5036318;28;20029;-72
2022/01/05 02:01:05;;;;;;;21.23;4.15;;;;;;;;;;5045868;28;20032;-72
2022/01/05 02:03:31;;;;;;;14.40;3.42;;;;;;;;;;5045837;28;20033;-72
2022/01/05 02:05:56;;;;;;;17.50;3.67;;;;;;;;;;5045535;28;20090;-72
2022/01/05 02:08:22;;;;;;;17.15;3.42;;;;;;;;;;5039713;28;20033;-72
2022/01/05 02:10:49;;;;;;;20.88;3.70;;;;;;;;;;5034219;28;20063;-72
2022/01/05 02:13:14;;;;;;;14.57;3.08;;;;;;;;;;5042166;28;20124;-72
2022/01/05 02:15:43;;;;;;;13.73;2.90;;;;;;;;;;5006408;28;20120;-72
2022/01/05 02:20:34;;;;;;;17.55;3.30;;;;;;;;;;5020979;28;20513;-72
2022/01/05 02:22:59;;;;;;;14.18;3.05;;;;;;;;;;5020703;28;20025;-72
2022/01/05 02:25:26;;;;;;;21.23;4.15;;;;;;;;;;5045194;28;20060;-72
2022/01/05 02:27:54;;;;;;;23.48;4.07;;;;;;;;;;5040683;28;20045;-72
2022/01/05 02:30:26;;;;;;;20.23;3.33;;;;;;;;;;5034791;28;20037;-72
2022/01/05 02:32:51;;;;;;;14.88;3.53;;;;;;;;;;5037804;28;20029;-72
2022/01/05 02:35:17;;;;;;;15.25;3.15;;;;;;;;;;5031738;28;23228;-72
2022/01/05 02:37:48;;;;;;;12.15;2.72;;;;;;;;;;5033919;28;20491;-72
2022/01/05 02:40:15;;;;;;;11.38;2.60;;;;;;;;;;5044925;28;20044;-72
2022/01/05 02:42:41;;;;;;;14.27;2.70;;;;;;;;;;5035016;28;20045;-72
2022/01/05 02:45:09;;;;;;;15.65;3.28;;;;;;;;;;5047025;28;20120;-72
2022/01/05 02:47:34;;;;;;;9.80;3.03;;;;;;;;;;5043900;28;20079;-72
2022/01/05 02:50:00;;;;;;;11.30;2.58;;;;;;;;;;5035543;28;20029;-72
2022/01/05 02:52:26;;;;;;;11.15;3.03;;;;;;;;;;5029964;28;20045;-72
2022/01/05 02:54:51;;;;;;;9.57;2.28;;;;;;;;;;5038583;28;20041;-73
2022/01/05 02:57:17;;;;;;;14.35;2.75;;;;;;;;;;5038295;28;20546;-73
2022/01/05 02:59:42;;;;;;;14.43;2.95;;;;;;;;;;5040149;28;20072;-73
2022/01/05 03:02:08;;;;;;;11.30;2.00;;;;;;;;;;5042937;28;20065;-73
2022/01/05 03:04:33;;;;;;;12.13;2.03;;;;;;;;;;5037318;28;20021;-72
2022/01/05 03:06:59;;;;;;;13.40;2.90;;;;;;;;;;5044876;28;20568;-73
2022/01/05 03:09:24;;;;;;;10.77;2.67;;;;;;;;;;5041921;28;20202;-72
2022/01/05 03:11:49;;;;;;;16.48;3.05;;;;;;;;;;5043816;28;20099;-72
2022/01/05 03:14:15;;;;;;;13.82;2.83;;;;;;;;;;5036635;28;20395;-72
2022/01/05 03:16:40;;;;;;;12.38;2.78;;;;;;;;;;5043358;28;20037;-72
2022/01/05 03:19:05;;;;;;;8.68;2.50;;;;;;;;;;5043577;28;20540;-72
2022/01/05 03:21:31;;;;;;;8.50;1.73;;;;;;;;;;5051371;28;20067;-72
2022/01/05 03:23:56;;;;;;;15.05;2.53;;;;;;;;;;5040970;28;20048;-72
2022/01/05 03:26:21;;;;;;;16.10;2.95;;;;;;;;;;5038112;28;20116;-73
2022/01/05 03:28:47;;;;;;;12.15;3.00;;;;;;;;;;5044913;28;20039;-72
2022/01/05 03:31:12;;;;;;;13.10;2.75;;;;;;;;;;5046883;28;20072;-72
2022/01/05 03:33:37;;;;;;;13.50;2.80;;;;;;;;;;5047348;28;20029;-72
2022/01/05 03:36:03;;;;;;;13.75;3.05;;;;;;;;;;5043551;28;20029;-72
2022/01/05 03:38:29;;;;;;;12.15;2.65;;;;;;;;;;5039871;28;20049;-72
2022/01/05 03:40:55;;;;;;;13.85;3.35;;;;;;;;;;5036970;28;20596;-72
2022/01/05 03:43:20;;;;;;;12.77;2.20;;;;;;;;;;5040929;28;20052;-72
2022/01/05 03:45:46;;;;;;;12.25;2.90;;;;;;;;;;5039958;28;20037;-72
2022/01/05 03:48:13;;;;;;;12.70;2.50;;;;;;;;;;5046554;28;20033;-72
2022/01/05 03:50:40;;;;;;;13.77;3.00;;;;;;;;;;5039671;28;20044;-72
2022/01/05 03:53:06;;;;;;;15.40;3.70;;;;;;;;;;5065367;28;20027;-72
2022/01/05 03:55:33;;;;;;;16.85;2.60;;;;;;;;;;5055570;28;20557;-72
2022/01/05 03:57:59;;;;;;;16.00;2.50;;;;;;;;;;5058079;28;20040;-72
2022/01/05 04:00:27;;;;;;;14.25;2.90;;;;;;;;;;5060357;28;20036;-72
2022/01/05 04:02:53;;;;;;;14.05;2.50;;;;;;;;;;5066239;28;20040;-72
2022/01/05 04:05:18;;;;;;;17.20;2.50;;;;;;;;;;5057466;28;20486;-72
2022/01/05 04:07:43;;;;;;;17.92;3.90;;;;;;;;;;5059569;28;20017;-72
2022/01/05 04:10:09;;;;;;;14.48;2.78;;;;;;;;;;5059675;28;20055;-72
2022/01/05 04:12:34;;;;;;;14.65;3.22;;;;;;;;;;5055706;28;20090;-72
2022/01/05 04:14:59;;;;;;;18.25;2.92;;;;;;;;;;5056872;28;20041;-72
2022/01/05 04:17:25;;;;;;;21.55;3.22;;;;;;;;;;5060190;28;20521;-72
2022/01/05 04:19:51;;;;;;;17.40;2.92;;;;;;;;;;5045377;28;20039;-72
2022/01/05 04:22:16;;;;;;;9.10;2.13;;;;;;;;;;5066443;28;20115;-72
2022/01/05 04:24:41;;;;;;;13.48;3.47;;;;;;;;;;5051248;28;20134;-72
2022/01/05 04:27:07;;;;;;;20.02;2.72;;;;;;;;;;5066250;28;20033;-72
2022/01/05 04:29:32;;;;;;;10.10;2.28;;;;;;;;;;5062731;28;20421;-72
2022/01/05 04:31:58;;;;;;;12.93;2.47;;;;;;;;;;5040489;28;20040;-72
2022/01/05 04:34:23;;;;;;;16.17;2.50;;;;;;;;;;5056186;28;20882;-72
2022/01/05 04:36:49;;;;;;;16.58;2.60;;;;;;;;;;5046531;28;20028;-72
2022/01/05 04:39:14;;;;;;;9.55;2.20;;;;;;;;;;5060867;28;20060;-72
2022/01/05 04:41:39;;;;;;;8.73;2.10;;;;;;;;;;5059293;28;20028;-72
2022/01/05 04:44:05;;;;;;;10.65;1.63;;;;;;;;;;5046724;28;20405;-72
2022/01/05 04:46:30;;;;;;;17.92;3.83;;;;;;;;;;5066228;28;20024;-72
2022/01/05 04:48:55;;;;;;;17.27;2.47;;;;;;;;;;5048505;28;20115;-72
2022/01/05 04:51:20;;;;;;;10.98;1.75;;;;;;;;;;5060650;28;20045;-73
2022/01/05 04:53:46;;;;;;;10.85;2.15;;;;;;;;;;5056192;28;20045;-72
2022/01/05 04:56:11;;;;;;;9.98;2.13;;;;;;;;;;5052542;28;20033;-72
2022/01/05 04:58:36;;;;;;;10.50;2.20;;;;;;;;;;5032604;28;20024;-72
2022/01/05 05:01:02;;;;;;;10.93;2.28;;;;;;;;;;5051376;28;20052;-72
2022/01/05 05:03:27;;;;;;;6.40;2.10;;;;;;;;;;5046055;28;20135;-72
2022/01/05 05:05:52;;;;;;;13.63;2.53;;;;;;;;;;5041882;28;20178;-72
2022/01/05 05:08:18;;;;;;;10.60;2.90;;;;;;;;;;5037289;28;20037;-72
2022/01/05 05:10:43;;;;;;;12.95;2.50;;;;;;;;;;5046581;28;20017;-72
2022/01/05 05:13:10;;;;;;;6.75;2.05;;;;;;;;;;5059717;28;20304;-72
2022/01/05 05:15:36;;;;;;;10.77;2.33;;;;;;;;;;5043576;28;20033;-72
2022/01/05 05:18:02;;;;;;;10.75;2.20;;;;;;;;;;5039675;28;20033;-72
2022/01/05 05:20:27;;;;;;;5.88;1.83;;;;;;;;;;5027060;28;20033;-72
2022/01/05 05:22:53;;;;;;;6.60;1.83;;;;;;;;;;5046141;28;20025;-72
2022/01/05 05:25:18;;;;;;;14.82;2.63;;;;;;;;;;5056795;28;20624;-72
2022/01/05 05:27:43;;;;;;;9.82;1.80;;;;;;;;;;5037686;28;20083;-72
2022/01/05 05:30:09;;;;;;;9.90;2.80;;;;;;;;;;5045424;28;20052;-72
2022/01/05 05:32:34;;;;;;;6.68;1.95;;;;;;;;;;5032119;28;20066;-72
2022/01/05 05:34:59;;;;;;;10.88;2.38;;;;;;;;;;5039008;28;20036;-72
2022/01/05 05:37:25;;;;;;;15.30;2.13;;;;;;;;;;5054983;28;20408;-72
2022/01/05 05:39:50;;;;;;;9.00;2.17;;;;;;;;;;5052066;28;20039;-72
2022/01/05 05:42:15;;;;;;;12.60;1.73;;;;;;;;;;5038451;28;20041;-72
2022/01/05 05:44:41;;;;;;;15.98;2.03;;;;;;;;;;5053243;28;20501;-72
2022/01/05 05:47:06;;;;;;;12.45;1.90;;;;;;;;;;5049283;28;20643;-72
2022/01/05 05:49:32;;;;;;;12.93;1.60;;;;;;;;;;5067218;28;20111;-72
2022/01/05 05:51:57;;;;;;;11.43;2.13;;;;;;;;;;5047191;28;20526;-72
2022/01/05 05:54:23;;;;;;;5.32;1.95;;;;;;;;;;5023357;28;20405;-72
2022/01/05 05:56:48;;;;;;;8.40;2.05;;;;;;;;;;5029072;28;20074;-72
2022/01/05 05:59:13;;;;;;;11.20;2.05;;;;;;;;;;5042907;28;20445;-72
2022/01/05 06:01:39;;;;;;;18.65;2.78;;;;;;;;;;5035930;28;20033;-72
2022/01/05 06:04:04;;;;;;;8.85;2.72;;;;;;;;;;5016139;28;20461;-72
2022/01/05 06:06:30;;;;;;;8.70;2.28;;;;;;;;;;5036289;28;20037;-72
2022/01/05 06:08:55;;;;;;;7.47;1.85;;;;;;;;;;5018368;28;20395;-72
2022/01/05 06:11:21;;;;;;;14.20;2.78;;;;;;;;;;5034230;28;20048;-72
2022/01/05 06:13:46;;;;;;;9.75;1.80;;;;;;;;;;5043544;28;20025;-72
2022/01/05 06:16:12;;;;;;;8.52;2.20;;;;;;;;;;5052799;28;20124;-71
2022/01/05 06:18:37;;;;;;;11.70;2.03;;;;;;;;;;5036359;28;20082;-73
2022/01/05 06:21:02;;;;;;;8.95;2.22;;;;;;;;;;5039428;28;20037;-72
2022/01/05 06:23:28;;;;;;;11.90;2.00;;;;;;;;;;5037403;28;20049;-72
2022/01/05 06:25:53;;;;;;;7.47;1.67;;;;;;;;;;5041082;28;20072;-72
2022/01/05 06:28:18;;;;;;;9.05;1.60;;;;;;;;;;5039941;28;20044;-72
2022/01/05 06:30:44;;;;;;;8.23;1.80;;;;;;;;;;5034090;28;20502;-72
2022/01/05 06:33:09;;;;;;;8.55;2.28;;;;;;;;;;5038776;28;20240;-72
2022/01/05 06:35:35;;;;;;;4.72;1.50;;;;;;;;;;5040061;28;20037;-72
2022/01/05 06:38:01;;;;;;;11.73;1.90;;;;;;;;;;5037471;28;20380;-72
2022/01/05 06:40:26;;;;;;;7.82;1.48;;;;;;;;;;5039308;28;20025;-72
2022/01/05 06:42:52;;;;;;;6.78;2.15;;;;;;;;;;5035225;28;20606;-72
2022/01/05 06:45:17;;;;;;;10.15;1.95;;;;;;;;;;5041596;28;20505;-72
2022/01/05 06:47:42;;;;;;;8.60;1.83;;;;;;;;;;5040552;28;20072;-72
2022/01/05 06:50:09;;;;;;;15.60;3.22;;;;;;;;;;5036085;28;20503;-72
2022/01/05 06:52:35;;;;;;;8.30;2.03;;;;;;;;;;5062561;28;20056;-72
2022/01/05 06:55:01;;;;;;;12.93;2.05;;;;;;;;;;5063893;28;20086;-72
2022/01/05 06:57:26;;;;;;;8.77;1.88;;;;;;;;;;5060717;28;20121;-72
2022/01/05 06:59:51;;;;;;;8.38;1.80;;;;;;;;;;5056489;28;20060;-72
2022/01/05 07:02:17;;;;;;;10.82;2.72;;;;;;;;;;5067365;28;20038;-72
2022/01/05 07:04:42;;;;;;;10.82;1.95;;;;;;;;;;5057015;28;20033;-72
2022/01/05 07:07:08;;;;;;;7.78;2.10;;;;;;;;;;5061932;28;20044;-73
2022/01/05 07:09:33;;;;;;;9.95;1.90;;;;;;;;;;5062806;28;20136;-72
2022/01/05 07:11:59;;;;;;;8.05;1.65;;;;;;;;;;5056359;28;20037;-72
2022/01/05 07:14:24;;;;;;;8.23;1.98;;;;;;;;;;5058630;28;20040;-72
2022/01/05 07:16:51;;;;;;;13.20;2.78;;;;;;;;;;5042032;28;20782;-72
2022/01/05 07:19:17;;;;;;;8.90;2.45;;;;;;;;;;5060673;28;20086;-72
2022/01/05 07:21:42;;;;;;;10.25;1.75;;;;;;;;;;5050530;28;20045;-73
2022/01/05 07:24:12;;;;;;;14.57;3.20;;;;;;;;;;5069725;28;20128;-72
2022/01/05 07:26:38;;;;;;;15.32;2.58;;;;;;;;;;5039791;28;20029;-72
2022/01/05 07:29:04;;;;;;;7.18;2.13;;;;;;;;;;5039793;28;20096;-71
2022/01/05 07:31:29;;;;;;;11.88;2.47;;;;;;;;;;5024034;28;20124;-70
2022/01/05 07:33:54;;;;;;;11.00;2.45;;;;;;;;;;5022310;28;20041;-72
2022/01/05 07:36:19;;;;;;;7.95;2.53;;;;;;;;;;5038805;28;20496;-70
2022/01/05 07:38:45;;;;;;;11.95;2.33;;;;;;;;;;5048411;28;20041;-71
2022/01/05 07:41:10;;;;;;;14.23;2.47;;;;;;;;;;5041625;28;20422;-71
2022/01/05 07:43:35;;;;;;;10.88;2.17;;;;;;;;;;5049317;28;20111;-71
2022/01/05 07:46:01;;;;;;;17.45;2.60;;;;;;;;;;5029442;28;20037;-71
2022/01/05 07:48:27;;;;;;;9.93;2.10;;;;;;;;;;5047265;28;20120;-71
2022/01/05 07:50:52;;;;;;;13.57;2.80;;;;;;;;;;5038897;28;20068;-71
2022/01/05 07:53:18;;;;;;;15.30;3.38;;;;;;;;;;5044493;28;20049;-71
2022/01/05 07:55:43;;;;;;;13.90;2.65;;;;;;;;;;5042671;28;20034;-71
2022/01/05 07:58:09;;;;;;;6.95;2.20;;;;;;;;;;5044025;28;20025;-71
2022/01/05 08:00:35;;;;;;;11.20;2.35;;;;;;;;;;5036326;28;20039;-71
2022/01/05 08:03:00;;;;;;;14.65;2.70;;;;;;;;;;5039383;28;20418;-73
2022/01/05 08:05:26;;;;;;;12.85;2.83;;;;;;;;;;5041719;28;20118;-73
2022/01/05 08:07:51;;;;;;;9.10;2.13;;;;;;;;;;5052007;28;20070;-71
2022/01/05 08:10:16;;;;;;;12.35;3.20;;;;;;;;;;5046134;28;20111;-71
2022/01/05 08:12:42;;;;;;;11.52;2.35;;;;;;;;;;5045885;28;20050;-70
2022/01/05 08:15:09;;;;;;;13.10;3.40;;;;;;;;;;5055317;28;20040;-69
2022/01/05 08:17:35;;;;;;;11.73;2.15;;;;;;;;;;5058893;28;20040;-70
2022/01/05 08:20:01;;;;;;;11.50;2.70;;;;;;;;;;5062684;28;20471;-74
2022/01/05 08:22:26;;;;;;;11.93;2.47;;;;;;;;;;5055157;28;20118;-74
2022/01/05 08:24:51;;;;;;;9.15;2.55;;;;;;;;;;5058648;28;20115;-71
2022/01/05 08:27:17;;;;;;;10.23;2.67;;;;;;;;;;5064681;28;20430;-73
2022/01/05 08:29:42;;;;;;;11.73;2.63;;;;;;;;;;5065774;28;20608;-73
2022/01/05 08:32:07;;;;;;;13.93;3.42;;;;;;;;;;5063899;28;20028;-72
2022/01/05 08:34:33;;;;;;;14.70;2.25;;;;;;;;;;5061665;28;20120;-70
2022/01/05 08:36:59;;;;;;;10.05;3.55;;;;;;;;;;5051886;28;20033;-71
2022/01/05 08:39:24;;;;;;;9.23;2.30;;;;;;;;;;5056898;28;20112;-71
2022/01/05 08:41:51;;;;;;;12.73;2.50;;;;;;;;;;5057441;28;20037;-73
2022/01/05 08:44:16;;;;;;;6.40;1.88;;;;;;;;;;5054524;28;20037;-73
2022/01/05 08:46:42;;;;;;;10.60;2.10;;;;;;;;;;5038081;28;20395;-73
2022/01/05 08:49:09;;;;;;;6.43;2.08;;;;;;;;;;5041397;28;20099;-70
2022/01/05 08:51:36;;;;;;;6.38;2.35;;;;;;;;;;5043121;28;20060;-72
2022/01/05 08:54:02;;;;;;;15.38;2.67;;;;;;;;;;5036393;28;20138;-73
2022/01/05 08:56:28;;;;;;;19.05;2.67;;;;;;;;;;5039430;28;20045;-74
2022/01/05 08:58:54;;;;;;;11.90;3.70;;;;;;;;;;5041872;28;20594;-73
2022/01/05 09:01:20;;;;;;;19.65;3.00;;;;;;;;;;5024546;28;20046;-74
2022/01/05 09:03:45;;;;;;;14.05;3.03;;;;;;;;;;5033650;28;20083;-73
2022/01/05 09:06:10;;;;;;;15.63;3.20;;;;;;;;;;5053505;28;20135;-72
2022/01/05 09:08:37;;;;;;;21.00;2.55;;;;;;;;;;5056857;28;20040;-72
2022/01/05 09:11:02;;;;;;;9.15;2.35;;;;;;;;;;5057555;28;20044;-72
2022/01/05 09:13:28;;;;;;;9.98;2.40;;;;;;;;;;5066037;28;20052;-72
2022/01/05 09:15:53;;;;;;;17.92;2.67;;;;;;;;;;5057733;28;20083;-72
2022/01/05 09:18:18;;;;;;;13.48;3.08;;;;;;;;;;5031032;28;20064;-73
2022/01/05 09:20:44;;;;;;;8.48;2.80;;;;;;;;;;5037947;28;20592;-72
2022/01/05 09:23:09;;;;;;;7.88;2.72;;;;;;;;;;5043055;28;20091;-72
2022/01/05 09:25:35;;;;;;;9.55;2.40;;;;;;;;;;5056025;28;20089;-72
2022/01/05 09:28:01;;;;;;;12.10;2.70;;;;;;;;;;5059611;28;20123;-71
2022/01/05 09:30:27;;;;;;;16.83;2.70;;;;;;;;;;5046036;28;20042;-72
2022/01/05 09:32:53;;;;;;;11.65;2.92;;;;;;;;;;5053066;28;20135;-73
2022/01/05 09:35:22;;;;;;;9.90;2.38;;;;;;;;;;5062160;28;20140;-72
2022/01/05 09:43:23;;;;;;;10.95;2.22;;;;;;;;;;5030833;28;20086;-72
2022/01/05 09:46:09;;;;;;;13.68;2.67;;;;;;;;;;5022318;28;20040;-72
2022/01/05 09:49:11;;;;;;;8.32;2.13;;;;;;;;;;5043238;28;20510;-72
2022/01/05 09:51:41;;;;;;;11.50;3.10;;;;;;;;;;5042720;28;20048;-72
2022/01/05 09:54:08;;;;;;;11.15;3.47;;;;;;;;;;5033152;28;20037;-77
2022/01/05 09:56:34;;;;;;;14.98;3.65;;;;;;;;;;5023004;28;20052;-75
2022/01/05 09:59:03;;;;;;;10.65;2.30;;;;;;;;;;5036304;28;20029;-74
2022/01/05 10:01:32;;;;;;;15.60;3.20;;;;;;;;;;5015646;28;20481;-75
2022/01/05 10:04:01;;;;;;;10.18;3.22;;;;;;;;;;5035651;28;20092;-75
2022/01/05 10:06:26;;;;;;;21.90;2.67;;;;;;;;;;5043719;28;20059;-74
2022/01/05 10:08:52;;;;;;;9.90;2.42;;;;;;;;;;5044848;28;20033;-74
2022/01/05 10:11:20;;;;;;;9.95;2.72;;;;;;;;;;5034904;28;24842;-73
2022/01/05 10:13:46;;;;;;;15.02;3.25;;;;;;;;;;5052482;28;20111;-72
2022/01/05 10:16:12;;;;;;;18.02;3.47;;;;;;;;;;5031246;28;20526;-74
2022/01/05 10:18:42;;;;;;;17.10;4.30;;;;;;;;;;5031416;28;20068;-73
2022/01/05 10:21:08;;;;;;;14.98;2.60;;;;;;;;;;5031366;28;20086;-72
2022/01/05 10:23:50;;;;;;;12.93;3.00;;;;;;;;;;5032266;28;20042;-73
2022/01/05 10:26:24;;;;;;;13.25;3.58;;;;;;;;;;5032716;28;20618;-76
2022/01/05 10:28:52;;;;;;;18.00;3.53;;;;;;;;;;5035000;28;20664;-74
2022/01/05 10:31:21;;;;;;;14.70;3.70;;;;;;;;;;5033330;28;20041;-75
2022/01/05 10:33:47;;;;;;;7.07;2.80;;;;;;;;;;5039368;28;20040;-73
2022/01/05 10:36:12;;;;;;;16.05;3.28;;;;;;;;;;5025935;28;20548;-73
2022/01/05 10:38:38;;;;;;;15.98;4.47;;;;;;;;;;5043867;28;20043;-73
2022/01/05 10:41:17;;;;;;;13.20;2.83;;;;;;;;;;5042370;28;20029;-73
2022/01/05 10:44:18;;;;;;;11.80;2.88;;;;;;;;;;5027024;28;20570;-74
2022/01/05 10:46:57;;;;;;;9.55;3.03;;;;;;;;;;5041503;28;20048;-74
2022/01/05 10:49:24;;;;;;;22.08;4.18;;;;;;;;;;5040485;28;20025;-70
2022/01/05 10:51:50;;;;;;;16.42;3.22;;;;;;;;;;5034346;28;20045;-73
2022/01/05 10:54:18;;;;;;;17.38;3.83;;;;;;;;;;5024262;28;20041;-75
2022/01/05 10:56:44;;;;;;;18.58;4.50;;;;;;;;;;5016278;28;20361;-74
2022/01/05 10:59:11;;;;;;;10.13;2.80;;;;;;;;;;5028758;28;20037;-73
2022/01/05 11:01:36;;;;;;;23.45;4.32;;;;;;;;;;5037055;28;20090;-76
2022/01/05 11:04:18;;;;;;;19.08;5.60;;;;;;;;;;5041274;28;20037;-73
2022/01/05 11:07:15;;;;;;;15.80;4.18;;;;;;;;;;5044511;28;20039;-74
2022/01/05 11:09:55;;;;;;;10.80;3.42;;;;;;;;;;5033574;28;20048;-74
2022/01/05 11:12:30;;;;;;;15.73;3.63;;;;;;;;;;5021419;28;20056;-74
2022/01/05 11:15:18;;;;;;;17.50;4.63;;;;;;;;;;5044516;28;20029;-71
2022/01/05 11:18:21;;;;;;;11.80;3.88;;;;;;;;;;5043693;28;20041;-72
2022/01/05 11:20:58;;;;;;;15.65;3.47;;;;;;;;;;5030975;28;20036;-72
2022/01/05 11:23:25;;;;;;;13.90;5.03;;;;;;;;;;5036969;28;20545;-71
2022/01/05 11:25:53;;;;;;;25.15;3.97;;;;;;;;;;5036354;28;20037;-71
2022/01/05 11:28:21;;;;;;;13.77;3.60;;;;;;;;;;5043467;28;20033;-71
2022/01/05 11:30:49;;;;;;;18.67;4.05;;;;;;;;;;5038698;28;20016;-72
2022/01/05 11:33:16;;;;;;;16.27;3.92;;;;;;;;;;5040824;28;20065;-74
2022/01/05 11:35:42;;;;;;;13.40;3.05;;;;;;;;;;5016765;28;20041;-73
2022/01/05 11:38:08;;;;;;;9.88;3.30;;;;;;;;;;5021977;28;20049;-73
2022/01/05 11:40:36;;;;;;;17.20;4.18;;;;;;;;;;4991312;28;20041;-73
2022/01/05 11:43:15;;;;;;;15.40;4.05;;;;;;;;;;5006849;28;20411;-72
2022/01/05 11:45:47;;;;;;;22.70;4.13;;;;;;;;;;5021828;28;20565;-73
2022/01/05 11:48:16;;;;;;;19.02;4.68;;;;;;;;;;4992676;28;20069;-76
2022/01/05 11:50:45;;;;;;;14.55;4.55;;;;;;;;;;5004112;28;20045;-73
2022/01/05 11:53:10;;;;;;;14.65;3.85;;;;;;;;;;5034162;28;20053;-75
2022/01/05 11:55:57;;;;;;;17.05;4.05;;;;;;;;;;5037952;28;20045;-77
2022/01/05 11:58:27;;;;;;;19.58;4.45;;;;;;;;;;5030357;28;20033;-73
2022/01/05 12:01:19;;;;;;;18.08;4.18;;;;;;;;;;5035052;28;20037;-75
2022/01/05 12:03:52;;;;;;;14.90;3.85;;;;;;;;;;4999206;28;20545;-76
2022/01/05 12:06:19;;;;;;;16.10;3.97;;;;;;;;;;5056378;28;20079;-76
2022/01/05 12:08:51;;;;;;;10.55;3.22;;;;;;;;;;5037547;28;20139;-75
2022/01/05 12:11:38;;;;;;;15.63;4.88;;;;;;;;;;5036281;28;20040;-74
2022/01/05 12:14:28;;;;;;;13.50;4.95;;;;;;;;;;5038201;28;20048;-76
2022/01/05 12:16:59;;;;;;;19.55;4.47;;;;;;;;;;5032976;28;20072;-76
2022/01/05 12:19:26;;;;;;;18.75;4.25;;;;;;;;;;5035672;28;20207;-74
2022/01/05 12:21:54;;;;;;;13.95;3.45;;;;;;;;;;5044301;28;20417;-75
2022/01/05 12:24:20;;;;;;;12.88;3.22;;;;;;;;;;5065400;28;20040;-74
2022/01/05 12:27:17;;;;;;;19.25;3.65;;;;;;;;;;5043491;28;20025;-72
2022/01/05 12:29:43;;;;;;;13.68;4.28;;;;;;;;;;5048052;28;20086;-74
2022/01/05 12:32:09;;;;;;;18.23;4.53;;;;;;;;;;5057831;28;20672;-70
2022/01/05 12:35:04;;;;;;;16.83;3.58;;;;;;;;;;5058655;28;20044;-71
2022/01/05 12:37:48;;;;;;;9.95;3.60;;;;;;;;;;5059261;28;20064;-70
2022/01/05 12:40:35;;;;;;;13.63;3.28;;;;;;;;;;5056721;28;20152;-70
2022/01/05 12:43:09;;;;;;;9.95;3.08;;;;;;;;;;5059743;28;20064;-71
2022/01/05 12:45:53;;;;;;;16.98;4.15;;;;;;;;;;5044690;28;20061;-70
2022/01/05 12:48:31;;;;;;;12.40;4.20;;;;;;;;;;5054100;28;20514;-69
2022/01/05 12:51:11;;;;;;;10.20;3.13;;;;;;;;;;5058688;28;20823;-70
2022/01/05 12:54:02;;;;;;;14.90;4.05;;;;;;;;;;5070520;28;20123;-70
2022/01/05 12:56:30;;;;;;;14.68;3.20;;;;;;;;;;5064118;28;20063;-71
2022/01/05 12:58:57;;;;;;;9.43;2.83;;;;;;;;;;5071819;28;20711;-70
2022/01/05 13:01:25;;;;;;;13.93;3.58;;;;;;;;;;5071263;28;20036;-70
2022/01/05 13:03:52;;;;;;;10.75;3.40;;;;;;;;;;5054611;28;20025;-70
2022/01/05 13:06:29;;;;;;;24.73;6.03;;;;;;;;;;5047069;28;20042;-70
2022/01/05 13:09:00;;;;;;;15.20;4.63;;;;;;;;;;5033211;28;20041;-74
2022/01/05 13:11:45;;;;;;;13.30;4.13;;;;;;;;;;5038700;28;20519;-73
2022/01/05 13:14:23;;;;;;;12.20;3.88;;;;;;;;;;5036225;28;20038;-74
2022/01/05 13:16:51;;;;;;;17.15;4.43;;;;;;;;;;5046554;28;20119;-74
2022/01/05 13:19:29;;;;;;;14.35;3.72;;;;;;;;;;5046018;28;20028;-76
2022/01/05 13:21:57;;;;;;;17.60;4.10;;;;;;;;;;5047283;28;20033;-76
2022/01/05 13:24:26;;;;;;;9.82;3.35;;;;;;;;;;5041897;28;20045;-75
2022/01/05 13:27:06;;;;;;;19.98;4.78;;;;;;;;;;5043289;28;20120;-79
2022/01/05 13:29:34;;;;;;;17.17;3.85;;;;;;;;;;5042440;28;20063;-76
2022/01/05 13:32:01;;;;;;;16.58;4.78;;;;;;;;;;5047988;28;20049;-76
2022/01/05 13:34:35;;;;;;;12.18;3.33;;;;;;;;;;5048792;28;20094;-75
2022/01/05 13:37:00;;;;;;;14.45;3.80;;;;;;;;;;5048367;28;20513;-76
2022/01/05 13:39:42;;;;;;;16.80;3.60;;;;;;;;;;5047240;28;20044;-75
2022/01/05 13:42:11;;;;;;;19.63;3.85;;;;;;;;;;5038062;28;20201;-75
2022/01/05 13:44:37;;;;;;;18.70;4.15;;;;;;;;;;5046268;28;20045;-75
2022/01/05 13:47:08;;;;;;;20.52;5.20;;;;;;;;;;5055534;28;20044;-72
2022/01/05 13:49:33;;;;;;;15.38;4.68;;;;;;;;;;5059211;28;20095;-77
2022/01/05 13:52:11;;;;;;;23.10;3.85;;;;;;;;;;5039175;28;20057;-75
2022/01/05 13:54:42;;;;;;;14.35;3.58;;;;;;;;;;5034937;28;20064;-77
2022/01/05 13:57:28;;;;;;;8.70;3.22;;;;;;;;;;5058603;28;20109;-77
2022/01/05 14:00:05;;;;;;;12.15;3.08;;;;;;;;;;5043856;28;20051;-79
2022/01/05 14:02:32;;;;;;;13.35;3.90;;;;;;;;;;5049884;28;20474;-76
2022/01/05 14:04:59;;;;;;;12.02;2.25;;;;;;;;;;5055415;28;20045;-78
2022/01/05 14:07:26;;;;;;;8.88;2.78;;;;;;;;;;5050122;28;20037;-75
2022/01/05 14:10:08;;;;;;;17.98;2.72;;;;;;;;;;5056954;28;20109;-76
2022/01/05 14:12:37;;;;;;;11.25;2.70;;;;;;;;;;5057287;28;20044;-74
2022/01/05 14:15:06;;;;;;;17.70;3.35;;;;;;;;;;5048784;28;20029;-74
2022/01/05 14:17:31;;;;;;;11.85;2.70;;;;;;;;;;5059001;28;20060;-77
2022/01/05 14:20:19;;;;;;;7.43;2.20;;;;;;;;;;5051806;28;20048;-73
2022/01/05 14:22:57;;;;;;;8.43;2.55;;;;;;;;;;5055652;28;20162;-75
2022/01/05 14:25:49;;;;;;;11.10;2.60;;;;;;;;;;5055188;28;20040;-79
2022/01/05 14:28:16;;;;;;;15.50;2.92;;;;;;;;;;5062310;28;20131;-78
2022/01/05 14:30:54;;;;;;;11.70;2.13;;;;;;;;;;5066964;28;20093;-73
2022/01/05 14:33:26;;;;;;;13.90;2.97;;;;;;;;;;5065177;28;20047;-74
2022/01/05 14:35:51;;;;;;;11.30;2.37;;;;;;;;;;5066242;28;20596;-74
2022/01/05 14:38:17;;;;;;;10.65;3.78;;;;;;;;;;5059057;28;20124;-74
2022/01/05 14:40:42;;;;;;;16.25;3.08;;;;;;;;;;5055300;28;20040;-75
2022/01/05 14:43:14;;;;;;;7.85;1.98;;;;;;;;;;5059269;28;20425;-74
2022/01/05 14:45:41;;;;;;;20.85;3.25;;;;;;;;;;5046697;28;20054;-72
2022/01/05 14:48:06;;;;;;;11.00;2.40;;;;;;;;;;5056060;28;20048;-73